Terminal Aerodrome Forecast
Issued by NWS Louisville, KY

Home | Current Version | Previous Version | Text Only | Print | Product List | Glossary On
Versions: 1 2 3 4 5 6 7 8 9 10 11 12 13
000
FTUS43 KLMK 022320
TAFBWG
TAF
KBWG 022320Z 0300/0324 VRB03KT P6SM FEW250
     FM031000 00000KT 6SM BR SCT050
     FM031300 25008KT P6SM SCT040=

USA.gov is the U.S. government's official web portal to all federal, state and local government web resources and services.